Time;durP1;ratioP1;P1;durP2;ratioP2;P2;SDS_P1;SDS_P2;PMS_P1;PMS_P2;Temp;Humidity;BMP_temperature;BMP_pressure;BME280_temperature;BME280_humidity;BME280_pressure;Samples;Min_cycle;Max_cycle;Signal;HPM_P1;HPM_P2
2024/04/07 00:00:46;;;;;;;9.32;6.00;;;24.90;53.00;;;;;;6153002;28;80980;-60
2024/04/07 00:03:46;;;;;;;10.52;6.40;;;24.90;52.90;;;;;;6155310;28;80500;-60
2024/04/07 00:06:47;;;;;;;10.98;5.90;;;24.90;53.00;;;;;;6164343;28;81201;-60
2024/04/07 00:09:47;;;;;;;7.50;5.38;;;24.90;52.80;;;;;;6165205;28;80513;-60
2024/04/07 00:12:48;;;;;;;8.52;5.68;;;24.90;52.80;;;;;;6155068;28;81250;-60
2024/04/07 00:15:48;;;;;;;10.18;5.68;;;24.90;52.80;;;;;;6154795;28;80811;-55
2024/04/07 00:18:49;;;;;;;10.80;5.88;;;24.90;52.70;;;;;;6154642;28;80488;-56
2024/04/07 00:21:49;;;;;;;9.02;5.63;;;24.90;52.80;;;;;;6154642;28;80510;-56
2024/04/07 00:24:50;;;;;;;12.52;5.85;;;24.90;52.90;;;;;;6154728;28;80424;-56
2024/04/07 00:27:50;;;;;;;7.05;5.00;;;24.90;52.80;;;;;;6154416;28;80280;-57
2024/04/07 00:30:51;;;;;;;9.00;5.20;;;24.90;52.60;;;;;;6154755;28;81436;-56
2024/04/07 00:33:53;;;;;;;8.82;5.63;;;24.90;52.60;;;;;;6164137;28;80979;-58
2024/04/07 00:36:53;;;;;;;7.53;5.05;;;24.90;52.60;;;;;;6154374;28;80611;-57
2024/04/07 00:39:54;;;;;;;7.57;5.63;;;24.90;52.70;;;;;;6154773;28;80828;-58
2024/04/07 00:42:54;;;;;;;9.82;5.85;;;24.90;52.50;;;;;;6154938;28;80661;-58
2024/04/07 00:45:55;;;;;;;9.02;6.03;;;24.90;52.60;;;;;;6155039;28;80675;-58
2024/04/07 00:48:55;;;;;;;8.35;5.35;;;24.90;52.60;;;;;;6154575;28;81566;-59
2024/04/07 00:51:57;;;;;;;9.85;5.97;;;24.90;52.60;;;;;;6154397;28;81345;-58
2024/04/07 00:54:58;;;;;;;8.63;5.25;;;24.90;52.60;;;;;;6154882;28;81129;-57
2024/04/07 00:57:58;;;;;;;8.00;5.28;;;24.90;52.50;;;;;;6155091;28;80379;-59
2024/04/07 01:00:59;;;;;;;8.13;5.28;;;24.90;52.50;;;;;;6154111;28;80788;-58
2024/04/07 01:03:59;;;;;;;14.30;5.95;;;24.90;52.60;;;;;;6154901;28;81224;-58
2024/04/07 01:07:00;;;;;;;8.45;5.55;;;24.90;52.60;;;;;;6163206;28;80340;-57
2024/04/07 01:10:00;;;;;;;9.88;5.78;;;24.90;52.70;;;;;;6154545;28;81043;-59
2024/04/07 01:13:02;;;;;;;9.88;5.70;;;24.90;52.60;;;;;;6153778;28;80096;-60
2024/04/07 01:16:04;;;;;;;8.27;5.50;;;24.90;52.70;;;;;;6154412;28;80412;-59
2024/04/07 01:19:04;;;;;;;9.43;5.35;;;24.90;52.70;;;;;;6154086;28;80325;-59
2024/04/07 01:22:05;;;;;;;8.32;5.28;;;24.90;52.70;;;;;;6156934;28;81587;-60
2024/04/07 01:25:06;;;;;;;7.35;4.85;;;24.90;52.70;;;;;;6148642;28;81308;-60
2024/04/07 01:28:06;;;;;;;8.30;5.32;;;24.80;52.60;;;;;;6130441;28;80615;-60
2024/04/07 01:31:07;;;;;;;8.30;4.95;;;24.90;52.60;;;;;;6130160;28;80288;-60
2024/04/07 01:34:07;;;;;;;9.52;5.45;;;24.90;52.70;;;;;;6130561;28;80732;-60
2024/04/07 01:37:08;;;;;;;7.93;4.70;;;24.80;52.60;;;;;;6145562;28;80595;-60
2024/04/07 01:40:09;;;;;;;9.00;5.65;;;24.80;52.50;;;;;;6154924;28;80432;-60
2024/04/07 01:43:09;;;;;;;8.27;5.25;;;24.80;52.50;;;;;;6154256;28;80329;-60
2024/04/07 01:46:10;;;;;;;6.53;4.78;;;24.80;52.60;;;;;;6153852;28;80421;-60
2024/04/07 01:49:10;;;;;;;8.85;5.10;;;24.80;52.50;;;;;;6153469;28;80618;-59
2024/04/07 01:52:11;;;;;;;9.15;4.70;;;24.80;52.50;;;;;;6154197;28;81862;-59
2024/04/07 01:55:11;;;;;;;8.10;5.10;;;24.80;52.60;;;;;;6153856;28;80415;-60
2024/04/07 01:58:12;;;;;;;8.10;5.22;;;24.80;52.40;;;;;;6154048;28;80945;-59
2024/04/07 02:01:12;;;;;;;7.75;5.22;;;24.90;52.60;;;;;;6153530;28;80619;-60
2024/04/07 02:04:13;;;;;;;8.60;5.43;;;24.90;52.50;;;;;;6153777;28;81009;-59
2024/04/07 02:07:13;;;;;;;6.75;5.28;;;24.80;52.50;;;;;;6166743;28;80403;-57
2024/04/07 02:10:14;;;;;;;8.38;5.45;;;24.90;52.60;;;;;;6152867;28;80257;-58
2024/04/07 02:13:14;;;;;;;6.13;4.40;;;24.90;52.60;;;;;;6153308;28;81409;-59
2024/04/07 02:16:15;;;;;;;7.45;4.85;;;24.90;52.50;;;;;;6153892;28;80874;-58
2024/04/07 02:19:16;;;;;;;7.90;4.68;;;24.90;52.50;;;;;;6155604;28;80645;-58
2024/04/07 02:22:18;;;;;;;7.18;5.03;;;24.90;52.40;;;;;;6153747;28;80557;-59
2024/04/07 02:25:18;;;;;;;10.10;5.50;;;24.80;52.30;;;;;;6152865;28;80448;-58
2024/04/07 02:28:19;;;;;;;7.57;5.35;;;24.90;52.30;;;;;;6152912;28;80550;-60
2024/04/07 02:31:19;;;;;;;8.10;5.13;;;24.90;52.30;;;;;;6153664;28;80612;-59
2024/04/07 02:34:20;;;;;;;8.13;5.28;;;24.90;52.60;;;;;;6162418;28;80442;-59
2024/04/07 02:37:20;;;;;;;6.55;4.55;;;24.80;52.50;;;;;;6153028;28;80922;-59
2024/04/07 02:40:21;;;;;;;8.05;4.78;;;24.80;52.60;;;;;;6153038;28;80804;-59
2024/04/07 02:43:22;;;;;;;9.48;5.25;;;24.80;52.50;;;;;;6152315;28;80374;-57
2024/04/07 02:49:41;;;;;;;7.38;4.68;;;24.80;52.40;;;;;;6152338;28;80465;-54
2024/04/07 02:52:42;;;;;;;6.53;4.88;;;24.80;52.50;;;;;;6151894;28;81718;-53
2024/04/07 02:55:42;;;;;;;10.90;5.88;;;24.80;52.30;;;;;;6152318;28;80433;-52
2024/04/07 02:58:43;;;;;;;7.88;4.88;;;24.80;52.40;;;;;;6152272;28;80582;-54
2024/04/07 03:01:43;;;;;;;6.22;4.45;;;24.80;52.20;;;;;;6152061;28;80578;-54
2024/04/07 03:04:44;;;;;;;6.35;5.15;;;24.80;52.30;;;;;;6152268;28;80680;-54
2024/04/07 03:07:46;;;;;;;8.98;5.63;;;24.80;52.30;;;;;;6164112;28;80054;-55
2024/04/07 03:10:46;;;;;;;8.70;5.25;;;24.80;52.30;;;;;;6151791;28;80319;-55
2024/04/07 03:13:47;;;;;;;7.10;4.80;;;24.80;52.10;;;;;;6151701;28;80989;-56
2024/04/07 03:16:47;;;;;;;7.03;4.80;;;24.80;52.50;;;;;;6151737;28;80350;-53
2024/04/07 03:19:48;;;;;;;6.82;4.47;;;24.80;52.30;;;;;;6151691;28;81205;-60
2024/04/07 03:22:49;;;;;;;7.10;5.00;;;24.80;52.20;;;;;;6152295;28;80400;-60
2024/04/07 03:25:49;;;;;;;7.65;5.03;;;24.80;52.20;;;;;;6152048;28;80661;-60
2024/04/07 03:28:50;;;;;;;7.28;4.70;;;24.90;52.20;;;;;;6147784;28;80967;-60
2024/04/07 03:31:50;;;;;;;7.45;4.63;;;24.90;52.20;;;;;;6156284;28;81382;-61
2024/04/07 03:34:51;;;;;;;7.95;4.93;;;24.80;52.70;;;;;;6155998;28;80415;-59
2024/04/07 03:37:51;;;;;;;8.80;6.07;;;24.80;52.20;;;;;;6155983;28;80592;-61
2024/04/07 03:40:52;;;;;;;9.93;4.78;;;24.80;52.00;;;;;;6153675;28;80430;-60
2024/04/07 03:43:52;;;;;;;7.95;5.05;;;24.80;51.80;;;;;;6151918;28;81358;-59
2024/04/07 03:46:57;;;;;;;9.43;5.60;;;24.80;51.80;;;;;;6162513;28;80700;-59
2024/04/07 03:49:57;;;;;;;9.38;4.85;;;24.80;51.70;;;;;;6150090;28;81705;-60
2024/04/07 03:52:58;;;;;;;7.50;5.60;;;24.80;51.60;;;;;;6151253;28;80284;-59
2024/04/07 03:55:58;;;;;;;7.07;5.18;;;24.80;51.60;;;;;;6151177;28;81376;-58
2024/04/07 03:58:59;;;;;;;7.25;5.03;;;24.90;51.60;;;;;;6150913;28;80508;-56
2024/04/07 04:02:00;;;;;;;10.55;5.43;;;24.90;51.60;;;;;;6151382;28;82119;-57
2024/04/07 04:05:01;;;;;;;7.57;5.30;;;24.90;51.60;;;;;;6153187;28;80459;-58
2024/04/07 04:08:02;;;;;;;7.13;4.40;;;24.90;51.50;;;;;;6163061;28;80579;-58
2024/04/07 04:11:03;;;;;;;8.02;4.90;;;24.90;51.50;;;;;;6153129;28;81078;-57
2024/04/07 04:14:04;;;;;;;7.35;4.93;;;24.90;51.40;;;;;;6150480;28;81341;-58
2024/04/07 04:17:04;;;;;;;8.10;4.72;;;25.00;51.40;;;;;;6150831;28;80418;-58
2024/04/07 04:20:08;;;;;;;9.90;4.78;;;25.00;51.40;;;;;;6150517;28;80357;-57
2024/04/07 04:23:08;;;;;;;7.40;5.03;;;25.00;51.40;;;;;;6150483;28;80429;-58
2024/04/07 04:26:09;;;;;;;6.25;4.40;;;25.00;51.50;;;;;;6149453;28;80596;-58
2024/04/07 04:29:13;;;;;;;7.65;5.07;;;25.00;51.40;;;;;;6150927;28;81004;-56
2024/04/07 04:32:13;;;;;;;9.07;4.80;;;25.00;51.40;;;;;;6158798;28;80303;-57
2024/04/07 04:35:14;;;;;;;8.80;5.18;;;25.00;51.40;;;;;;6152539;28;80698;-58
2024/04/07 04:38:14;;;;;;;8.32;4.97;;;24.90;51.40;;;;;;6149992;28;80210;-58
2024/04/07 04:41:15;;;;;;;6.68;4.90;;;24.90;51.50;;;;;;6150717;28;81504;-57
2024/04/07 04:44:15;;;;;;;6.72;4.90;;;25.00;51.40;;;;;;6150752;28;81198;-58
2024/04/07 04:47:16;;;;;;;7.75;5.03;;;24.90;51.50;;;;;;6151122;28;81242;-59
2024/04/07 04:50:16;;;;;;;10.40;5.13;;;24.90;51.40;;;;;;6154452;28;81874;-59
2024/04/07 04:53:17;;;;;;;6.95;5.18;;;24.90;51.50;;;;;;6154530;28;80561;-55
2024/04/07 04:56:17;;;;;;;8.77;5.40;;;24.90;51.50;;;;;;6154255;28;80427;-56
2024/04/07 04:59:18;;;;;;;7.72;4.85;;;24.90;51.60;;;;;;6154699;28;83799;-58
2024/04/07 05:02:19;;;;;;;8.07;5.60;;;24.90;51.70;;;;;;6154239;28;80607;-56
2024/04/07 05:05:20;;;;;;;6.55;4.80;;;24.90;51.40;;;;;;6156902;28;80934;-58
2024/04/07 05:08:20;;;;;;;7.65;5.57;;;24.90;51.70;;;;;;6155701;28;80960;-59
2024/04/07 05:11:21;;;;;;;5.30;4.57;;;24.90;51.80;;;;;;6151196;28;82358;-59
2024/04/07 05:14:21;;;;;;;9.75;5.47;;;24.90;51.30;;;;;;6152315;28;81545;-59
2024/04/07 05:17:22;;;;;;;7.22;5.20;;;25.00;51.70;;;;;;6153596;28;80399;-58
2024/04/07 05:20:22;;;;;;;9.07;5.10;;;24.90;51.60;;;;;;6154135;28;80772;-59
2024/04/07 05:23:24;;;;;;;8.82;5.20;;;24.90;51.60;;;;;;6166821;28;82252;-59
2024/04/07 05:26:24;;;;;;;8.40;5.80;;;24.90;51.60;;;;;;6154979;28;81251;-57
2024/04/07 05:29:25;;;;;;;7.55;5.38;;;24.90;51.70;;;;;;6158711;28;81052;-57
2024/04/07 05:32:25;;;;;;;9.63;5.50;;;24.90;51.70;;;;;;6157742;28;80454;-56
2024/04/07 05:35:26;;;;;;;10.05;5.75;;;25.00;51.70;;;;;;6162012;28;80553;-57
2024/04/07 05:38:26;;;;;;;10.18;5.70;;;24.90;51.70;;;;;;6155815;28;81295;-56
2024/04/07 05:41:27;;;;;;;8.40;5.45;;;24.90;51.80;;;;;;6149166;28;80314;-56
2024/04/07 05:44:28;;;;;;;8.07;5.82;;;25.00;51.80;;;;;;6157760;28;80429;-57
2024/04/07 05:47:28;;;;;;;8.65;5.75;;;25.00;51.80;;;;;;6161348;28;81072;-58
2024/04/07 05:50:29;;;;;;;9.15;5.93;;;25.00;51.80;;;;;;6139866;28;81571;-58
2024/04/07 05:53:29;;;;;;;10.35;6.47;;;25.00;51.90;;;;;;6153064;28;81715;-58
2024/04/07 05:56:30;;;;;;;8.40;5.90;;;25.00;51.80;;;;;;6153991;28;80959;-58
2024/04/07 05:59:30;;;;;;;9.95;6.78;;;25.00;52.00;;;;;;6153528;28;80504;-56
2024/04/07 06:02:31;;;;;;;9.98;6.47;;;25.00;51.80;;;;;;6153090;28;81653;-56
2024/04/07 06:05:32;;;;;;;9.75;5.97;;;25.00;52.00;;;;;;6158629;28;80391;-56
2024/04/07 06:08:33;;;;;;;11.35;6.90;;;25.00;52.10;;;;;;6159066;28;86574;-56
2024/04/07 06:11:33;;;;;;;11.48;7.13;;;25.10;52.20;;;;;;6153707;28;81825;-58
2024/04/07 06:14:34;;;;;;;10.98;6.93;;;25.00;52.20;;;;;;6153945;28;80946;-56
2024/04/07 06:17:35;;;;;;;10.95;7.53;;;25.10;51.80;;;;;;6153878;28;80758;-58
2024/04/07 06:20:35;;;;;;;16.83;7.82;;;25.10;51.50;;;;;;6153541;28;81147;-57
2024/04/07 06:23:36;;;;;;;13.27;7.70;;;25.00;51.90;;;;;;6153991;28;81261;-63
2024/04/07 06:26:36;;;;;;;18.42;8.48;;;25.00;51.90;;;;;;6154452;28;81710;-64
2024/04/07 06:29:37;;;;;;;17.30;8.68;;;25.00;51.60;;;;;;6150390;28;81712;-63
2024/04/07 06:32:37;;;;;;;16.70;8.00;;;25.00;51.40;;;;;;6154446;28;81309;-63
2024/04/07 06:35:38;;;;;;;14.13;9.27;;;25.10;51.80;;;;;;6153278;28;88505;-64
2024/04/07 06:38:38;;;;;;;16.00;9.30;;;25.10;52.10;;;;;;6160932;28;80877;-62
2024/04/07 06:41:39;;;;;;;14.73;8.48;;;25.10;51.80;;;;;;6155596;28;80426;-64
2024/04/07 06:44:39;;;;;;;13.18;8.98;;;25.10;51.70;;;;;;6152852;28;82098;-63
2024/04/07 06:47:40;;;;;;;18.83;9.45;;;25.10;51.80;;;;;;6157360;28;80378;-64
2024/04/07 06:50:41;;;;;;;13.73;9.25;;;25.10;51.80;;;;;;6159839;28;80626;-64
2024/04/07 06:53:41;;;;;;;23.60;10.73;;;25.10;52.10;;;;;;6155394;28;81016;-64
2024/04/07 06:56:42;;;;;;;25.73;13.05;;;25.10;52.00;;;;;;6150914;28;83256;-62
2024/04/07 06:59:42;;;;;;;26.80;12.80;;;25.20;53.00;;;;;;6156855;28;84396;-62
2024/04/07 07:02:43;;;;;;;22.85;12.32;;;25.20;53.10;;;;;;6146778;28;83081;-61
2024/04/07 07:05:43;;;;;;;21.77;13.18;;;25.20;53.30;;;;;;6153055;28;83627;-62
2024/04/07 07:08:44;;;;;;;23.17;13.30;;;25.20;53.30;;;;;;6154859;28;83395;-62
2024/04/07 07:11:44;;;;;;;21.75;12.95;;;25.30;53.80;;;;;;6147953;28;83329;-61
2024/04/07 07:14:45;;;;;;;22.17;12.48;;;25.30;53.90;;;;;;6148601;28;83413;-62
2024/04/07 07:17:45;;;;;;;27.40;12.70;;;25.30;53.90;;;;;;6149039;28;83349;-60
2024/04/07 07:20:46;;;;;;;21.60;11.68;;;25.30;53.90;;;;;;6152390;28;83227;-61
2024/04/07 07:23:46;;;;;;;27.27;12.20;;;25.30;54.20;;;;;;6154503;28;87979;-60
2024/04/07 07:26:47;;;;;;;24.95;11.27;;;25.30;53.70;;;;;;6139412;28;83843;-62
2024/04/07 07:29:48;;;;;;;23.15;11.43;;;25.30;53.50;;;;;;6148883;28;83257;-63
2024/04/07 07:32:49;;;;;;;21.95;11.70;;;25.30;53.20;;;;;;6157512;28;83362;-62
2024/04/07 07:35:50;;;;;;;36.05;11.82;;;25.30;53.30;;;;;;6148670;28;83601;-60
2024/04/07 07:38:51;;;;;;;19.63;10.98;;;25.30;53.70;;;;;;6147697;28;84053;-60
2024/04/07 07:41:52;;;;;;;21.77;11.25;;;25.30;53.60;;;;;;6159074;28;85253;-63
2024/04/07 07:44:52;;;;;;;28.98;11.82;;;25.40;53.70;;;;;;6152939;28;83914;-64
2024/04/07 07:47:53;;;;;;;23.67;11.52;;;25.40;53.80;;;;;;6149664;28;83592;-63
2024/04/07 07:50:53;;;;;;;23.17;12.13;;;25.40;53.80;;;;;;6146659;28;85009;-63
2024/04/07 07:53:54;;;;;;;18.92;10.68;;;25.50;53.80;;;;;;6146901;28;83925;-63
2024/04/07 07:56:55;;;;;;;21.73;10.68;;;25.50;53.90;;;;;;6148340;28;83553;-64
2024/04/07 07:59:56;;;;;;;20.80;11.10;;;25.50;54.00;;;;;;6148359;28;83474;-60
2024/04/07 08:02:56;;;;;;;17.25;10.75;;;25.50;54.00;;;;;;6145578;28;83138;-60
2024/04/07 08:05:57;;;;;;;15.07;10.05;;;25.60;54.30;;;;;;6154971;28;83532;-65
2024/04/07 08:08:57;;;;;;;16.65;10.40;;;25.60;54.20;;;;;;6155657;28;84436;-60
2024/04/07 08:11:59;;;;;;;16.60;9.20;;;25.60;54.40;;;;;;6151945;28;84670;-61
2024/04/07 08:14:59;;;;;;;17.92;10.50;;;25.60;54.30;;;;;;6155675;28;83173;-63
2024/04/07 08:18:00;;;;;;;18.13;9.95;;;25.70;54.40;;;;;;6147607;28;83476;-64
2024/04/07 08:21:01;;;;;;;18.85;9.35;;;25.70;54.30;;;;;;6160791;28;83417;-64
2024/04/07 08:24:01;;;;;;;16.30;9.35;;;25.70;54.20;;;;;;6164352;28;80891;-64
2024/04/07 08:27:02;;;;;;;16.95;9.57;;;25.70;54.10;;;;;;6164317;28;80445;-63
2024/04/07 08:30:03;;;;;;;13.85;9.20;;;25.70;54.00;;;;;;6153079;28;82928;-63
2024/04/07 08:33:03;;;;;;;18.13;8.93;;;25.70;53.90;;;;;;6143271;28;80651;-63
2024/04/07 08:36:04;;;;;;;17.35;9.27;;;25.80;54.00;;;;;;6150864;28;80890;-63
2024/04/07 08:39:04;;;;;;;16.45;8.90;;;25.80;54.00;;;;;;6138730;28;81175;-64
2024/04/07 08:42:05;;;;;;;12.88;8.43;;;25.80;54.10;;;;;;6131048;28;80656;-66
2024/04/07 08:45:05;;;;;;;16.75;7.13;;;25.90;54.00;;;;;;6132181;28;81315;-62
2024/04/07 08:48:06;;;;;;;12.25;6.72;;;25.90;54.00;;;;;;6132570;28;80324;-61
2024/04/07 08:51:06;;;;;;;12.57;6.10;;;25.90;53.60;;;;;;6131601;28;83621;-62
2024/04/07 08:54:07;;;;;;;11.02;5.88;;;25.90;53.20;;;;;;6134933;28;81073;-60
2024/04/07 08:57:08;;;;;;;12.75;6.30;;;25.90;52.70;;;;;;6138268;28;81288;-59
2024/04/07 09:00:10;;;;;;;8.68;5.10;;;26.00;52.30;;;;;;6127423;28;82836;-63
2024/04/07 09:03:10;;;;;;;8.20;5.22;;;26.00;52.10;;;;;;6131217;28;82066;-63
2024/04/07 09:06:11;;;;;;;8.30;5.40;;;26.10;52.10;;;;;;6141232;28;80659;-60
2024/04/07 09:09:12;;;;;;;8.68;5.65;;;26.10;52.30;;;;;;6133632;28;81373;-61
2024/04/07 09:12:12;;;;;;;7.57;4.45;;;26.10;52.30;;;;;;6138002;28;84887;-61
2024/04/07 09:15:13;;;;;;;7.57;4.75;;;26.10;51.80;;;;;;6138064;28;80575;-63
2024/04/07 09:18:13;;;;;;;6.93;4.22;;;26.20;52.00;;;;;;6133243;28;80849;-63
2024/04/07 09:21:14;;;;;;;9.82;5.15;;;26.20;51.80;;;;;;6148807;28;80751;-62
2024/04/07 09:24:14;;;;;;;13.27;4.97;;;26.20;51.80;;;;;;6138966;28;80191;-62
2024/04/07 09:27:17;;;;;;;8.32;4.50;;;26.30;52.10;;;;;;6128148;28;81596;-62
2024/04/07 09:30:18;;;;;;;6.65;4.32;;;26.30;52.10;;;;;;6149393;28;80966;-62
2024/04/07 09:33:18;;;;;;;6.82;4.45;;;26.30;51.80;;;;;;6156253;28;80538;-64
2024/04/07 09:36:19;;;;;;;8.50;4.35;;;26.30;51.90;;;;;;6160698;28;80219;-64
2024/04/07 09:39:20;;;;;;;8.63;4.30;;;26.30;52.00;;;;;;6158964;28;81119;-65
2024/04/07 09:42:21;;;;;;;8.93;5.20;;;26.40;52.20;;;;;;6156752;28;82768;-65
2024/04/07 09:45:21;;;;;;;8.23;4.55;;;26.30;52.10;;;;;;6155336;28;86624;-65
2024/04/07 09:48:22;;;;;;;7.40;4.43;;;26.40;52.10;;;;;;6159459;28;80699;-65
2024/04/07 09:51:22;;;;;;;5.68;3.95;;;26.40;52.10;;;;;;6158452;28;80545;-65
2024/04/07 09:54:23;;;;;;;7.72;3.83;;;26.40;52.10;;;;;;6158304;28;81251;-63
2024/04/07 09:57:23;;;;;;;6.35;4.30;;;26.50;52.10;;;;;;6156640;28;81931;-65
2024/04/07 10:00:24;;;;;;;12.88;3.80;;;26.50;52.10;;;;;;6158330;28;80746;-66
2024/04/07 10:03:24;;;;;;;7.13;4.60;;;26.50;52.10;;;;;;6156693;28;83914;-60
2024/04/07 10:06:25;;;;;;;6.38;4.20;;;26.50;52.10;;;;;;6155235;28;80211;-61
2024/04/07 10:09:26;;;;;;;6.88;3.63;;;26.50;52.10;;;;;;6117528;28;86953;-61
2024/04/07 10:12:27;;;;;;;7.10;4.10;;;26.50;52.30;;;;;;6140258;28;84469;-62
2024/04/07 10:15:27;;;;;;;7.18;4.50;;;26.60;52.10;;;;;;6140266;28;84107;-59
2024/04/07 10:18:28;;;;;;;6.32;4.18;;;26.60;52.20;;;;;;6151868;28;80401;-61
2024/04/07 10:21:28;;;;;;;5.53;3.58;;;26.60;52.00;;;;;;6145640;28;83822;-62
2024/04/07 10:24:30;;;;;;;4.57;3.45;;;26.60;52.10;;;;;;6143737;28;82880;-60
2024/04/07 10:27:31;;;;;;;5.93;3.88;;;26.70;52.00;;;;;;6162931;28;83474;-67
2024/04/07 10:30:34;;;;;;;7.45;3.97;;;26.70;52.10;;;;;;6166113;28;81529;-60
2024/04/07 10:33:34;;;;;;;6.47;3.30;;;26.70;52.00;;;;;;6163496;28;81595;-60
2024/04/07 10:36:35;;;;;;;6.32;3.50;;;26.70;52.00;;;;;;6159430;28;81344;-62
2024/04/07 10:39:35;;;;;;;6.07;3.53;;;26.70;51.90;;;;;;6164707;28;81131;-59
2024/04/07 10:42:36;;;;;;;6.07;3.20;;;26.70;51.90;;;;;;6172713;28;80271;-59
2024/04/07 10:45:36;;;;;;;5.15;3.55;;;26.80;52.20;;;;;;6152802;28;80640;-59
2024/04/07 10:48:37;;;;;;;5.22;3.08;;;26.80;52.00;;;;;;6158300;28;80498;-60
2024/04/07 10:51:37;;;;;;;6.03;2.70;;;26.70;52.00;;;;;;6153684;28;80982;-58
2024/04/07 10:54:38;;;;;;;4.65;2.90;;;26.80;52.00;;;;;;6160640;28;83210;-59
2024/04/07 10:57:39;;;;;;;4.88;3.25;;;26.80;51.90;;;;;;6154557;28;81144;-58
2024/04/07 11:00:39;;;;;;;5.18;2.67;;;26.70;51.70;;;;;;6169101;28;80948;-59
2024/04/07 11:03:40;;;;;;;3.28;2.10;;;26.70;51.00;;;;;;6164287;28;81793;-60
2024/04/07 11:06:40;;;;;;;4.45;2.35;;;26.70;50.40;;;;;;6165507;28;80548;-59
2024/04/07 11:09:41;;;;;;;3.88;2.35;;;26.70;50.20;;;;;;6161316;28;83055;-58
2024/04/07 11:12:43;;;;;;;5.75;2.47;;;26.80;50.50;;;;;;6151166;28;80617;-59
2024/04/07 11:15:43;;;;;;;5.63;2.30;;;26.80;50.80;;;;;;6150897;28;80490;-58
2024/04/07 11:18:44;;;;;;;2.60;2.10;;;26.80;51.00;;;;;;6149977;28;80937;-59
2024/04/07 11:21:45;;;;;;;5.80;2.40;;;26.80;51.20;;;;;;6154629;28;80855;-58
2024/04/07 11:24:45;;;;;;;4.25;2.35;;;26.70;50.90;;;;;;6156724;28;80338;-59
2024/04/07 11:27:46;;;;;;;6.22;2.58;;;26.70;50.90;;;;;;6148616;28;80908;-58
2024/04/07 11:30:46;;;;;;;6.35;2.65;;;26.70;50.90;;;;;;6148953;28;80955;-59
2024/04/07 11:33:47;;;;;;;4.07;2.13;;;26.60;50.90;;;;;;6160796;28;81362;-57
2024/04/07 11:36:48;;;;;;;3.85;2.00;;;26.70;51.00;;;;;;6157997;28;83231;-56
2024/04/07 11:39:52;;;;;;;4.43;2.53;;;26.70;51.10;;;;;;6156135;28;82726;-55
2024/04/07 11:42:52;;;;;;;9.57;2.45;;;26.80;51.50;;;;;;6160335;28;81321;-57
2024/04/07 11:45:53;;;;;;;4.28;2.10;;;26.70;51.40;;;;;;6139950;28;81625;-57
2024/04/07 11:48:53;;;;;;;3.50;2.28;;;26.70;51.30;;;;;;6141545;28;82134;-56
2024/04/07 11:51:54;;;;;;;6.03;2.65;;;26.70;52.30;;;;;;6133586;28;80600;-57
2024/04/07 11:54:55;;;;;;;7.00;2.03;;;26.70;53.30;;;;;;6134434;28;81353;-58
2024/04/07 11:57:55;;;;;;;5.60;2.03;;;26.70;53.30;;;;;;6157216;28;82310;-59
2024/04/07 12:00:56;;;;;;;3.28;1.83;;;26.70;53.30;;;;;;6148600;28;81925;-61
2024/04/07 12:03:58;;;;;;;3.35;1.77;;;26.60;53.40;;;;;;6155293;28;80643;-59
2024/04/07 12:06:58;;;;;;;6.40;2.08;;;26.70;53.30;;;;;;6161666;28;87138;-60
2024/04/07 12:09:59;;;;;;;3.60;1.77;;;26.60;53.40;;;;;;6153449;28;80688;-58
2024/04/07 12:12:59;;;;;;;3.67;1.55;;;26.60;53.90;;;;;;6154271;28;80346;-60
2024/04/07 12:16:00;;;;;;;2.53;1.65;;;26.70;54.50;;;;;;6143720;28;80099;-59
2024/04/07 12:19:00;;;;;;;7.38;1.98;;;26.70;54.30;;;;;;6161702;28;85082;-60
2024/04/07 12:22:01;;;;;;;6.68;2.05;;;26.80;54.00;;;;;;6173320;28;80386;-60
2024/04/07 12:25:02;;;;;;;3.42;2.13;;;26.70;53.90;;;;;;6153961;28;83390;-59
2024/04/07 12:28:02;;;;;;;2.70;1.80;;;26.80;54.00;;;;;;6151953;28;80486;-58
2024/04/07 12:31:03;;;;;;;3.83;1.88;;;26.80;53.90;;;;;;6166523;28;80577;-62
2024/04/07 12:34:03;;;;;;;6.20;2.35;;;26.70;53.50;;;;;;6151779;28;82751;-62
2024/04/07 12:37:04;;;;;;;2.53;2.05;;;26.70;53.20;;;;;;6160256;28;88281;-61
2024/04/07 12:40:04;;;;;;;7.05;1.75;;;26.70;52.90;;;;;;6161261;28;81072;-64
2024/04/07 12:43:05;;;;;;;4.07;2.00;;;26.70;53.00;;;;;;6154464;28;81692;-61
2024/04/07 12:46:06;;;;;;;2.67;1.58;;;26.70;52.90;;;;;;6159084;28;80306;-63
2024/04/07 12:49:06;;;;;;;5.47;1.83;;;26.70;52.60;;;;;;6165915;28;80631;-64
2024/04/07 12:52:07;;;;;;;5.15;1.70;;;26.70;52.60;;;;;;6158531;28;80870;-62
2024/04/07 12:55:08;;;;;;;5.50;1.80;;;26.70;52.30;;;;;;6152101;28;83371;-63
2024/04/07 12:58:08;;;;;;;4.50;1.75;;;26.70;52.70;;;;;;6171921;28;80703;-59
2024/04/07 13:01:09;;;;;;;2.72;1.95;;;26.70;52.60;;;;;;6160276;28;82194;-62
2024/04/07 13:04:09;;;;;;;3.22;1.67;;;26.70;52.70;;;;;;6166099;28;80632;-62
2024/04/07 13:07:10;;;;;;;5.03;2.20;;;26.70;52.70;;;;;;6160414;28;81404;-58
2024/04/07 13:10:10;;;;;;;2.20;1.60;;;26.70;52.50;;;;;;6155723;28;86049;-58
2024/04/07 13:13:11;;;;;;;1.92;1.40;;;26.70;52.10;;;;;;6173577;28;80510;-60
2024/04/07 13:16:11;;;;;;;4.03;2.00;;;26.60;51.90;;;;;;6165154;28;81629;-59
2024/04/07 13:19:12;;;;;;;4.72;1.80;;;26.60;52.10;;;;;;6156330;28;80490;-58
2024/04/07 13:22:12;;;;;;;3.05;1.95;;;26.60;51.70;;;;;;6155010;28;80821;-59
2024/04/07 13:25:13;;;;;;;2.33;1.50;;;26.70;51.60;;;;;;6167400;28;81078;-59
2024/04/07 13:28:14;;;;;;;4.32;1.88;;;26.60;51.30;;;;;;6171275;28;80919;-59
2024/04/07 13:31:14;;;;;;;2.25;1.73;;;26.60;51.10;;;;;;6170588;28;84358;-59
2024/04/07 13:34:14;;;;;;;3.38;2.05;;;26.60;50.90;;;;;;6177598;28;81728;-59
2024/04/07 13:37:15;;;;;;;5.97;1.70;;;26.60;50.80;;;;;;6156326;28;80284;-58
2024/04/07 13:40:16;;;;;;;2.05;1.40;;;26.60;50.70;;;;;;6152969;28;80769;-64
2024/04/07 13:43:16;;;;;;;2.92;1.60;;;26.60;50.90;;;;;;6156235;28;80486;-60
2024/04/07 13:46:17;;;;;;;5.15;1.98;;;26.60;51.70;;;;;;6152881;28;82703;-63
2024/04/07 13:49:17;;;;;;;3.13;1.85;;;26.50;52.20;;;;;;6145642;28;80876;-59
2024/04/07 13:52:18;;;;;;;3.97;2.20;;;26.50;54.00;;;;;;6155993;28;81036;-60
2024/04/07 13:55:18;;;;;;;2.30;1.55;;;26.50;53.70;;;;;;6152902;28;80724;-60
2024/04/07 13:58:19;;;;;;;2.30;1.65;;;26.50;54.60;;;;;;6152558;28;81158;-65
2024/04/07 14:01:20;;;;;;;9.48;1.90;;;26.50;55.60;;;;;;6160991;28;80423;-55
2024/04/07 14:04:21;;;;;;;1.90;1.38;;;26.50;53.50;;;;;;6151712;28;81017;-56
2024/04/07 14:07:23;;;;;;;2.58;1.70;;;26.50;54.30;;;;;;6162397;28;80734;-60
2024/04/07 14:10:23;;;;;;;4.57;1.58;;;26.50;54.20;;;;;;6151211;28;85335;-60
2024/04/07 14:13:24;;;;;;;5.68;1.50;;;26.50;54.50;;;;;;6165707;28;81201;-59
2024/04/07 14:16:24;;;;;;;2.58;1.73;;;26.60;53.60;;;;;;6163172;28;80827;-59
2024/04/07 14:19:25;;;;;;;6.22;2.17;;;26.60;54.60;;;;;;6173843;28;80790;-59
2024/04/07 14:22:25;;;;;;;2.47;1.75;;;26.60;55.90;;;;;;6165217;28;81685;-58
2024/04/07 14:25:26;;;;;;;2.55;1.63;;;26.60;53.70;;;;;;6158982;28;80692;-59
2024/04/07 14:28:26;;;;;;;5.38;1.95;;;26.50;53.50;;;;;;6154775;28;83000;-59
2024/04/07 14:31:27;;;;;;;3.85;1.70;;;26.50;54.10;;;;;;6147892;28;80944;-59
2024/04/07 14:34:27;;;;;;;4.30;1.77;;;26.50;51.50;;;;;;6160393;28;81561;-59
2024/04/07 14:37:28;;;;;;;7.13;2.33;;;26.50;54.00;;;;;;6158904;28;80328;-59
2024/04/07 14:40:29;;;;;;;4.68;2.13;;;26.40;54.90;;;;;;6155891;28;82210;-58
2024/04/07 14:43:29;;;;;;;7.70;1.83;;;26.50;54.20;;;;;;6156728;28;80732;-59
2024/04/07 14:46:30;;;;;;;3.25;1.70;;;26.50;54.60;;;;;;6151580;28;81094;-57
2024/04/07 14:49:30;;;;;;;8.18;2.35;;;26.40;52.60;;;;;;6151735;28;80596;-59
2024/04/07 14:52:31;;;;;;;3.25;1.90;;;26.30;52.30;;;;;;6157852;28;80715;-59
2024/04/07 14:55:31;;;;;;;5.13;1.70;;;26.30;52.50;;;;;;6175180;28;81259;-57
2024/04/07 14:58:32;;;;;;;3.42;1.70;;;26.20;53.00;;;;;;6161298;28;80710;-58
2024/04/07 15:01:33;;;;;;;4.45;2.20;;;26.30;53.30;;;;;;6154606;28;80780;-60
2024/04/07 15:04:33;;;;;;;5.72;2.10;;;26.30;53.10;;;;;;6152261;28;80477;-60
2024/04/07 15:07:33;;;;;;;2.45;1.80;;;26.30;51.90;;;;;;6152952;28;80385;-59
2024/04/07 15:10:36;;;;;;;3.60;1.70;;;26.20;51.60;;;;;;6156843;28;81001;-58
2024/04/07 15:13:36;;;;;;;10.32;1.45;;;26.20;52.00;;;;;;6157743;28;80377;-58
2024/04/07 15:16:37;;;;;;;5.18;1.63;;;26.20;51.50;;;;;;6165772;28;81602;-59
2024/04/07 15:19:37;;;;;;;4.80;2.05;;;26.10;51.20;;;;;;6153896;28;80268;-58
2024/04/07 15:22:38;;;;;;;4.03;1.80;;;26.10;52.10;;;;;;6160165;28;81527;-57
2024/04/07 15:25:39;;;;;;;5.70;1.90;;;26.10;52.10;;;;;;6152528;28;87005;-59
2024/04/07 15:28:39;;;;;;;4.20;2.00;;;26.20;51.60;;;;;;6153496;28;80483;-59
2024/04/07 15:31:40;;;;;;;1.65;1.52;;;26.20;51.20;;;;;;6168560;28;80832;-59
2024/04/07 15:34:41;;;;;;;2.78;1.88;;;26.20;51.00;;;;;;6150814;28;80787;-58
2024/04/07 15:37:41;;;;;;;3.30;1.48;;;26.10;50.90;;;;;;6142335;28;80718;-57